KLM B744 at Amsterdam!KLM B744 at Amsterdam!

  RTB (Hubpage) - Quick select - Fri, 2020-04-03    Follow us at Facebook Follow us at twitter Follow us at Flickr Follow us at You Tube
Boeing 747-406 from KLM at Amsterdam.
 Airplane:Boeing 747-406 from KLM. LARGER
 Regi:PH-BFK
 MSN Year:25087 1991
 Date of picture:2006-08-05 18:25
 Discription:End of story for this plane to Mojave AirPort, for demolishing at september 2016.
 Position:TXWY V to 36L.
 METAR:05/08/2006 18:25 METAR EHAM 051825Z 34011KT 320V020 9999 FEW016 20/16 Q1019 BECMG BKN016=
 TAF:05/08/2006 17:42 TAF EHAM 051742Z 051904 34015KT 9999 FEW020 BECMG 1921 33007KT SCT012 BKN017 BECMG 2124 SCT010 BKN012 PROB30 0004 BKN008=
2006-08-05
 Hits: 351 ID: 207



  Write a comment.

Comments:
Debriefing: Photographed movements of Airports in NW-Europe.
The images of our site attendant is in authorisation from Queen of Sky.
Copying of images of this site have been prohibited in which manner without the authorisation of the photographer.
In behalf of the crew :"Thank you visiting us" - Contact
Say again?
Copyright Boeing 747-406 PH-BFK from KLM at Amsterdam of De Plane! De Plane! © 2006 - 2020 All rights reserved